Time;durP1;ratioP1;P1;durP2;ratioP2;P2;SDS_P1;SDS_P2;PMS_P1;PMS_P2;Temp;Humidity;BMP_temperature;BMP_pressure;BME280_temperature;BME280_humidity;BME280_pressure;Samples;Min_cycle;Max_cycle;Signal;HPM_P1;HPM_P2
2021/04/03 00:01:07;;;;;;;7.07;0.85;;;;;;;;;;5040335;28;20115;-56
2021/04/03 00:03:34;;;;;;;7.55;0.77;;;;;;;;;;5034079;28;20085;-55
2021/04/03 00:06:00;;;;;;;7.93;0.88;;;;;;;;;;5019857;28;20057;-60
2021/04/03 00:08:26;;;;;;;8.82;1.30;;;;;;;;;;5029881;28;20044;-58
2021/04/03 00:10:54;;;;;;;12.52;1.27;;;;;;;;;;5040184;28;20037;-60
2021/04/03 00:13:21;;;;;;;7.30;1.02;;;;;;;;;;5036353;28;20056;-60
2021/04/03 00:15:47;;;;;;;14.32;1.73;;;;;;;;;;5041963;28;20041;-58
2021/04/03 00:18:14;;;;;;;11.85;1.20;;;;;;;;;;5039967;28;20108;-56
2021/04/03 00:20:41;;;;;;;11.20;1.42;;;;;;;;;;5042909;28;20041;-56
2021/04/03 00:23:07;;;;;;;17.52;1.17;;;;;;;;;;5039137;28;20052;-60
2021/04/03 00:25:33;;;;;;;9.90;1.13;;;;;;;;;;5041927;28;20602;-59
2021/04/03 00:28:00;;;;;;;10.60;1.30;;;;;;;;;;5040733;28;20041;-60
2021/04/03 00:30:26;;;;;;;7.65;1.00;;;;;;;;;;5042664;28;20052;-61
2021/04/03 00:32:56;;;;;;;8.18;1.05;;;;;;;;;;5039215;28;20118;-60
2021/04/03 00:35:23;;;;;;;11.20;1.20;;;;;;;;;;5041966;28;20029;-60
2021/04/03 00:37:51;;;;;;;5.25;0.90;;;;;;;;;;5042444;28;20093;-60
2021/04/03 00:40:18;;;;;;;20.17;1.75;;;;;;;;;;5039212;28;20107;-60
2021/04/03 00:42:47;;;;;;;16.13;1.70;;;;;;;;;;5043522;28;20060;-58
2021/04/03 00:45:14;;;;;;;8.38;1.45;;;;;;;;;;5037072;28;20060;-60
2021/04/03 00:47:40;;;;;;;5.28;1.00;;;;;;;;;;5043427;28;20045;-56
2021/04/03 00:50:06;;;;;;;9.50;1.30;;;;;;;;;;5042137;28;20095;-58
2021/04/03 00:52:33;;;;;;;10.10;1.55;;;;;;;;;;5045064;28;20053;-58
2021/04/03 00:55:01;;;;;;;8.38;1.10;;;;;;;;;;5038892;28;20056;-60
2021/04/03 00:57:27;;;;;;;15.23;1.55;;;;;;;;;;5041156;28;20053;-60
2021/04/03 00:59:53;;;;;;;4.70;1.08;;;;;;;;;;5039573;28;20045;-58
2021/04/03 01:02:19;;;;;;;7.95;1.35;;;;;;;;;;5042570;28;20041;-60
2021/04/03 01:04:45;;;;;;;7.10;1.50;;;;;;;;;;5038934;28;20045;-60
2021/04/03 01:07:11;;;;;;;11.13;1.35;;;;;;;;;;5044602;28;20072;-60
2021/04/03 01:09:37;;;;;;;8.60;1.30;;;;;;;;;;5037826;28;20056;-60
2021/04/03 01:12:11;;;;;;;9.93;1.13;;;;;;;;;;5042114;28;20052;-61
2021/04/03 01:14:40;;;;;;;11.88;1.50;;;;;;;;;;5037800;28;20057;-60
2021/04/03 01:17:09;;;;;;;11.73;1.48;;;;;;;;;;5041431;28;20052;-59
2021/04/03 01:19:50;;;;;;;14.77;1.25;;;;;;;;;;5039169;28;20041;-60
2021/04/03 01:22:31;;;;;;;6.80;1.27;;;;;;;;;;5042845;28;20110;-60
2021/04/03 01:25:12;;;;;;;6.50;1.30;;;;;;;;;;5024012;28;20042;-60
2021/04/03 01:27:46;;;;;;;8.80;1.30;;;;;;;;;;5043082;28;20119;-60
2021/04/03 01:30:16;;;;;;;11.25;1.02;;;;;;;;;;5036553;28;20045;-60
2021/04/03 01:32:45;;;;;;;10.52;1.40;;;;;;;;;;5038274;28;20025;-58
2021/04/03 01:35:14;;;;;;;10.25;1.25;;;;;;;;;;5021206;28;20049;-59
2021/04/03 01:37:43;;;;;;;10.55;1.30;;;;;;;;;;5023469;28;20056;-60
2021/04/03 01:40:10;;;;;;;11.35;1.30;;;;;;;;;;5041412;28;20045;-56
2021/04/03 01:42:38;;;;;;;9.95;1.17;;;;;;;;;;5022882;28;20037;-57
2021/04/03 01:45:07;;;;;;;17.17;1.40;;;;;;;;;;5018061;28;20042;-60
2021/04/03 01:47:35;;;;;;;9.95;1.45;;;;;;;;;;5002855;28;20082;-60
2021/04/03 01:50:01;;;;;;;6.67;1.57;;;;;;;;;;5008635;28;20037;-58
2021/04/03 01:52:29;;;;;;;9.15;1.58;;;;;;;;;;5033931;28;20049;-59
2021/04/03 01:54:56;;;;;;;10.02;1.05;;;;;;;;;;5045751;28;20048;-59
2021/04/03 01:57:23;;;;;;;13.68;1.48;;;;;;;;;;5041062;28;20045;-59
2021/04/03 01:59:50;;;;;;;17.05;1.60;;;;;;;;;;5044811;28;20044;-59
2021/04/03 02:02:17;;;;;;;9.00;1.33;;;;;;;;;;5036827;28;20037;-59
2021/04/03 02:04:44;;;;;;;14.32;1.42;;;;;;;;;;5041424;28;20048;-59
2021/04/03 02:07:13;;;;;;;19.08;1.67;;;;;;;;;;5028353;28;20056;-59
2021/04/03 02:09:40;;;;;;;10.93;1.30;;;;;;;;;;5044847;28;20052;-59
2021/04/03 02:12:08;;;;;;;11.82;1.45;;;;;;;;;;5041707;28;20083;-59
2021/04/03 02:14:35;;;;;;;14.40;1.50;;;;;;;;;;5045488;28;20033;-60
2021/04/03 02:17:01;;;;;;;8.25;1.10;;;;;;;;;;5044032;28;20036;-58
2021/04/03 02:19:28;;;;;;;11.32;1.30;;;;;;;;;;5047595;28;20041;-60
2021/04/03 02:21:55;;;;;;;13.15;1.45;;;;;;;;;;5044140;28;20041;-60
2021/04/03 02:24:21;;;;;;;13.63;2.35;;;;;;;;;;5041495;28;20043;-60
2021/04/03 02:26:47;;;;;;;13.88;1.65;;;;;;;;;;5044740;28;20048;-59
2021/04/03 02:29:14;;;;;;;12.48;1.38;;;;;;;;;;5039134;28;20040;-60
2021/04/03 02:31:40;;;;;;;14.68;1.77;;;;;;;;;;5044124;28;20114;-60
2021/04/03 02:34:06;;;;;;;11.80;1.25;;;;;;;;;;5040383;28;20044;-60
2021/04/03 02:36:32;;;;;;;10.40;1.40;;;;;;;;;;5042924;28;20039;-58
2021/04/03 02:38:59;;;;;;;17.13;1.85;;;;;;;;;;5040878;28;20057;-60
2021/04/03 02:41:28;;;;;;;13.23;1.60;;;;;;;;;;5059350;28;20055;-60
2021/04/03 02:44:04;;;;;;;9.98;1.30;;;;;;;;;;5041476;28;20040;-60
2021/04/03 02:46:36;;;;;;;10.57;1.27;;;;;;;;;;5042816;28;20041;-60
2021/04/03 02:49:04;;;;;;;6.55;1.10;;;;;;;;;;5040256;28;20025;-57
2021/04/03 02:51:32;;;;;;;9.55;1.42;;;;;;;;;;5061513;28;20056;-60
2021/04/03 02:54:00;;;;;;;10.85;1.67;;;;;;;;;;5037453;28;20041;-59
2021/04/03 02:56:28;;;;;;;9.47;1.23;;;;;;;;;;5024069;28;20081;-60
2021/04/03 02:58:55;;;;;;;11.73;1.35;;;;;;;;;;5025153;28;20389;-60
2021/04/03 03:01:21;;;;;;;13.63;1.38;;;;;;;;;;5061568;28;20140;-60
2021/04/03 03:03:50;;;;;;;11.80;1.63;;;;;;;;;;5039273;28;20055;-58
2021/04/03 03:06:16;;;;;;;23.65;2.05;;;;;;;;;;5044141;28;20036;-54
2021/04/03 03:08:43;;;;;;;17.52;1.10;;;;;;;;;;5043842;28;20102;-55
2021/04/03 03:11:10;;;;;;;7.63;1.40;;;;;;;;;;5038234;28;20049;-59
2021/04/03 03:13:36;;;;;;;13.23;1.40;;;;;;;;;;5039426;28;20041;-59
2021/04/03 03:16:03;;;;;;;15.88;1.45;;;;;;;;;;5032771;28;20061;-59
2021/04/03 03:18:29;;;;;;;15.18;1.30;;;;;;;;;;5019604;28;20038;-56
2021/04/03 03:20:56;;;;;;;11.88;1.50;;;;;;;;;;5031031;28;20040;-56
2021/04/03 03:23:22;;;;;;;10.93;1.58;;;;;;;;;;5041152;28;20045;-57
2021/04/03 03:25:48;;;;;;;12.65;1.40;;;;;;;;;;5037034;28;20037;-60
2021/04/03 03:28:15;;;;;;;9.98;1.25;;;;;;;;;;5039478;28;20045;-56
2021/04/03 03:30:41;;;;;;;18.02;1.75;;;;;;;;;;5036834;28;20037;-55
2021/04/03 03:33:09;;;;;;;11.20;1.50;;;;;;;;;;5040384;28;20044;-55
2021/04/03 03:35:35;;;;;;;12.80;1.90;;;;;;;;;;5037239;28;20038;-59
2021/04/03 03:38:02;;;;;;;9.73;1.60;;;;;;;;;;5041718;28;20046;-59
2021/04/03 03:40:29;;;;;;;14.30;1.92;;;;;;;;;;5036256;28;20091;-57
2021/04/03 03:42:55;;;;;;;13.27;1.75;;;;;;;;;;5042966;28;20053;-53
2021/04/03 03:45:23;;;;;;;12.23;2.42;;;;;;;;;;5039349;28;20025;-59
2021/04/03 03:47:48;;;;;;;14.98;1.65;;;;;;;;;;5043057;28;20103;-60
2021/04/03 03:50:14;;;;;;;13.48;1.75;;;;;;;;;;5044297;28;20053;-59
2021/04/03 03:52:41;;;;;;;16.98;1.75;;;;;;;;;;5039350;28;20057;-60
2021/04/03 03:55:07;;;;;;;15.80;2.00;;;;;;;;;;5045884;28;20049;-60
2021/04/03 03:57:34;;;;;;;15.30;1.83;;;;;;;;;;5040697;28;20095;-59
2021/04/03 04:00:00;;;;;;;15.55;1.80;;;;;;;;;;5043945;28;20052;-60
2021/04/03 04:02:27;;;;;;;15.25;1.52;;;;;;;;;;5039012;28;20084;-60
2021/04/03 04:04:53;;;;;;;21.95;2.22;;;;;;;;;;5042242;28;20033;-58
2021/04/03 04:07:19;;;;;;;12.95;2.30;;;;;;;;;;5038772;28;20045;-59
2021/04/03 04:09:45;;;;;;;16.05;1.83;;;;;;;;;;5034873;28;20033;-53
2021/04/03 04:12:12;;;;;;;17.02;1.73;;;;;;;;;;5039283;28;20037;-60
2021/04/03 04:14:38;;;;;;;13.82;1.77;;;;;;;;;;5041324;28;20087;-59
2021/04/03 04:17:05;;;;;;;9.10;1.25;;;;;;;;;;5037925;28;20036;-60
2021/04/03 04:19:32;;;;;;;25.08;2.03;;;;;;;;;;5042306;28;20098;-58
2021/04/03 04:22:01;;;;;;;15.95;1.85;;;;;;;;;;5037535;28;20051;-60
2021/04/03 04:24:27;;;;;;;16.25;1.92;;;;;;;;;;5043314;28;20052;-59
2021/04/03 04:26:53;;;;;;;17.98;1.75;;;;;;;;;;5038871;28;20065;-59
2021/04/03 04:29:19;;;;;;;7.47;2.20;;;;;;;;;;5041559;28;20045;-57
2021/04/03 04:31:45;;;;;;;11.00;1.80;;;;;;;;;;5041189;28;20045;-60
2021/04/03 04:34:13;;;;;;;14.00;2.28;;;;;;;;;;5037304;28;20056;-58
2021/04/03 04:36:40;;;;;;;14.88;1.88;;;;;;;;;;5042442;28;20114;-56
2021/04/03 04:39:06;;;;;;;10.88;1.60;;;;;;;;;;5038519;28;20061;-58
2021/04/03 04:41:32;;;;;;;11.85;1.77;;;;;;;;;;5042716;28;20048;-59
2021/04/03 04:44:00;;;;;;;10.77;1.70;;;;;;;;;;5038937;28;20094;-56
2021/04/03 04:46:26;;;;;;;12.65;2.00;;;;;;;;;;5042617;28;20106;-58
2021/04/03 04:48:51;;;;;;;13.52;1.77;;;;;;;;;;5040083;28;20053;-58
2021/04/03 04:51:18;;;;;;;24.52;2.40;;;;;;;;;;5042568;28;20037;-55
2021/04/03 04:53:48;;;;;;;17.73;2.30;;;;;;;;;;5035151;28;20304;-57
2021/04/03 04:56:14;;;;;;;10.25;1.52;;;;;;;;;;5022580;28;20087;-58
2021/04/03 04:58:40;;;;;;;18.35;1.85;;;;;;;;;;5022682;28;20037;-58
2021/04/03 05:01:06;;;;;;;12.85;1.77;;;;;;;;;;5042724;28;20080;-59
2021/04/03 05:03:32;;;;;;;13.70;1.70;;;;;;;;;;5039943;28;20122;-58
2021/04/03 05:05:58;;;;;;;17.48;2.08;;;;;;;;;;5042123;28;20049;-59
2021/04/03 05:08:24;;;;;;;12.57;1.60;;;;;;;;;;5042995;28;20104;-59
2021/04/03 05:10:51;;;;;;;15.93;2.15;;;;;;;;;;5039913;28;20045;-55
2021/04/03 05:13:17;;;;;;;17.88;1.88;;;;;;;;;;5043258;28;20041;-56
2021/04/03 05:15:43;;;;;;;15.30;2.10;;;;;;;;;;5040669;28;20064;-58
2021/04/03 05:18:09;;;;;;;14.68;1.88;;;;;;;;;;5045220;28;20028;-55
2021/04/03 05:20:35;;;;;;;10.95;2.42;;;;;;;;;;5060023;28;20059;-59
2021/04/03 05:23:01;;;;;;;19.00;2.38;;;;;;;;;;5045538;28;20037;-58
2021/04/03 05:25:27;;;;;;;18.48;2.25;;;;;;;;;;5048076;28;20044;-58
2021/04/03 05:27:54;;;;;;;18.30;2.05;;;;;;;;;;5064744;28;20133;-59
2021/04/03 05:30:21;;;;;;;21.42;2.13;;;;;;;;;;5053758;28;20057;-56
2021/04/03 05:32:47;;;;;;;12.65;1.83;;;;;;;;;;5046688;28;20048;-58
2021/04/03 05:35:13;;;;;;;22.70;1.88;;;;;;;;;;5042167;28;20211;-57
2021/04/03 05:37:39;;;;;;;11.38;1.90;;;;;;;;;;5044474;28;20053;-57
2021/04/03 05:40:06;;;;;;;18.17;1.95;;;;;;;;;;5043057;28;20037;-57
2021/04/03 05:42:34;;;;;;;15.15;1.90;;;;;;;;;;5045199;28;20036;-54
2021/04/03 05:45:03;;;;;;;12.15;1.52;;;;;;;;;;5042480;28;20040;-56
2021/04/03 05:47:29;;;;;;;15.15;2.10;;;;;;;;;;5046882;28;20052;-52
2021/04/03 05:49:55;;;;;;;20.35;2.58;;;;;;;;;;5044645;28;20043;-58
2021/04/03 05:52:21;;;;;;;11.05;1.98;;;;;;;;;;5042900;28;20171;-57
2021/04/03 05:54:47;;;;;;;19.45;2.00;;;;;;;;;;5044657;28;20052;-56
2021/04/03 05:57:14;;;;;;;13.95;2.05;;;;;;;;;;5042321;28;20145;-54
2021/04/03 05:59:40;;;;;;;19.23;2.08;;;;;;;;;;5045027;28;20126;-56
2021/04/03 06:02:07;;;;;;;18.63;2.25;;;;;;;;;;5040660;28;20053;-59
2021/04/03 06:04:33;;;;;;;20.25;2.40;;;;;;;;;;5045492;28;20139;-56
2021/04/03 06:06:59;;;;;;;12.55;2.10;;;;;;;;;;5060521;28;20053;-52
2021/04/03 06:09:32;;;;;;;9.68;1.60;;;;;;;;;;5045762;28;20029;-59
2021/04/03 06:11:58;;;;;;;15.48;1.80;;;;;;;;;;5040667;28;20159;-56
2021/04/03 06:14:27;;;;;;;19.05;1.70;;;;;;;;;;5039838;28;20081;-56
2021/04/03 06:16:53;;;;;;;23.83;2.35;;;;;;;;;;5036914;28;20048;-59
2021/04/03 06:19:20;;;;;;;14.25;2.08;;;;;;;;;;5041065;28;20053;-59
2021/04/03 06:21:47;;;;;;;17.03;2.33;;;;;;;;;;5037989;28;20033;-55
2021/04/03 06:24:21;;;;;;;14.57;1.92;;;;;;;;;;5042485;28;20062;-60
2021/04/03 06:26:56;;;;;;;13.73;1.73;;;;;;;;;;5022249;28;20049;-56
2021/04/03 06:29:23;;;;;;;21.02;2.10;;;;;;;;;;5032869;28;20052;-59
2021/04/03 06:31:53;;;;;;;12.05;1.65;;;;;;;;;;5038219;28;20029;-57
2021/04/03 06:34:30;;;;;;;17.27;2.40;;;;;;;;;;5042936;28;20042;-57
2021/04/03 06:36:56;;;;;;;13.05;1.85;;;;;;;;;;5038918;28;20085;-57
2021/04/03 06:39:23;;;;;;;19.38;2.22;;;;;;;;;;5043182;28;20041;-55
2021/04/03 06:41:49;;;;;;;16.85;1.73;;;;;;;;;;5039949;28;20034;-60
2021/04/03 06:44:15;;;;;;;17.10;2.88;;;;;;;;;;5038462;28;20125;-58
2021/04/03 06:46:41;;;;;;;18.13;2.38;;;;;;;;;;5041045;28;20117;-60
2021/04/03 06:49:07;;;;;;;18.83;2.22;;;;;;;;;;5039275;28;20029;-59
2021/04/03 06:51:34;;;;;;;20.58;2.53;;;;;;;;;;5039096;28;20040;-61
2021/04/03 06:54:01;;;;;;;25.02;2.28;;;;;;;;;;5028343;28;20041;-57
2021/04/03 06:56:27;;;;;;;15.80;1.83;;;;;;;;;;5033996;28;20049;-60
2021/04/03 06:58:57;;;;;;;11.55;1.83;;;;;;;;;;5026791;28;20089;-60
2021/04/03 07:01:25;;;;;;;21.80;2.40;;;;;;;;;;5029172;28;20060;-59
2021/04/03 07:03:53;;;;;;;13.80;1.88;;;;;;;;;;5025086;28;20049;-57
2021/04/03 07:06:21;;;;;;;26.58;2.47;;;;;;;;;;5033551;28;20045;-59
2021/04/03 07:08:49;;;;;;;21.27;2.13;;;;;;;;;;5028423;28;20128;-56
2021/04/03 07:11:15;;;;;;;21.33;2.25;;;;;;;;;;5033383;28;20052;-57
2021/04/03 07:13:42;;;;;;;14.77;2.20;;;;;;;;;;5036502;28;20057;-58
2021/04/03 07:16:08;;;;;;;15.88;2.00;;;;;;;;;;5035002;28;20040;-58
2021/04/03 07:18:34;;;;;;;12.60;2.00;;;;;;;;;;5047856;28;20144;-57
2021/04/03 07:21:01;;;;;;;25.90;2.67;;;;;;;;;;5029068;28;20060;-58
2021/04/03 07:23:27;;;;;;;15.13;1.85;;;;;;;;;;5033639;28;20067;-59
2021/04/03 07:25:58;;;;;;;25.10;2.72;;;;;;;;;;5035545;28;20044;-59
2021/04/03 07:28:24;;;;;;;15.00;1.80;;;;;;;;;;5032765;28;20041;-58
2021/04/03 07:30:50;;;;;;;16.83;3.22;;;;;;;;;;5044497;28;20049;-59
2021/04/03 07:33:19;;;;;;;13.95;2.45;;;;;;;;;;5049928;28;20034;-57
2021/04/03 07:35:44;;;;;;;;;;;;;;;;;;5016186;28;20058;-58
2021/04/03 07:38:11;;;;;;;17.45;2.60;;;;;;;;;;5018202;28;20010;-57
2021/04/03 07:40:39;;;;;;;9.43;1.80;;;;;;;;;;5037126;28;20041;-57
2021/04/03 07:43:29;;;;;;;6.85;1.02;;;;;;;;;;5020005;28;20037;-60
2021/04/03 07:45:55;;;;;;;24.60;2.22;;;;;;;;;;5010099;28;20052;-60
2021/04/03 07:48:54;;;;;;;17.35;2.05;;;;;;;;;;5042474;28;20065;-58
2021/04/03 07:51:39;;;;;;;19.10;2.55;;;;;;;;;;4998916;28;20064;-59
2021/04/03 07:54:07;;;;;;;11.52;2.17;;;;;;;;;;5011797;28;20129;-55
2021/04/03 07:56:47;;;;;;;9.57;1.47;;;;;;;;;;5030301;28;20098;-59
2021/04/03 07:59:14;;;;;;;26.92;2.88;;;;;;;;;;5043846;28;20124;-58
2021/04/03 08:01:45;;;;;;;16.48;1.70;;;;;;;;;;5042257;28;20129;-59
2021/04/03 08:04:14;;;;;;;11.57;2.22;;;;;;;;;;5046061;28;20113;-59
2021/04/03 08:06:41;;;;;;;21.63;2.05;;;;;;;;;;5013200;28;20057;-57
2021/04/03 08:09:10;;;;;;;13.10;1.90;;;;;;;;;;5042882;28;20039;-58
2021/04/03 08:11:36;;;;;;;19.77;1.75;;;;;;;;;;5054476;28;20036;-58
2021/04/03 08:14:04;;;;;;;16.88;2.35;;;;;;;;;;5038091;28;20131;-58
2021/04/03 08:16:35;;;;;;;11.17;1.73;;;;;;;;;;5033848;28;20045;-59
2021/04/03 08:19:02;;;;;;;17.70;2.10;;;;;;;;;;5037869;28;20278;-60
2021/04/03 08:21:29;;;;;;;13.68;1.92;;;;;;;;;;5034196;28;20124;-54
2021/04/03 08:23:56;;;;;;;19.67;1.70;;;;;;;;;;5028290;28;20071;-59
2021/04/03 08:26:23;;;;;;;12.13;2.00;;;;;;;;;;5017644;28;20048;-60
2021/04/03 08:28:49;;;;;;;22.08;2.58;;;;;;;;;;5039135;28;20033;-60
2021/04/03 08:31:16;;;;;;;17.35;2.08;;;;;;;;;;5039836;28;20115;-61
2021/04/03 08:33:45;;;;;;;13.27;2.33;;;;;;;;;;5035170;28;20041;-60
2021/04/03 08:36:10;;;;;;;;;;;;;;;;;;5041409;28;20081;-60
2021/04/03 08:38:38;;;;;;;10.93;1.73;;;;;;;;;;5038787;28;19920;-60
2021/04/03 08:41:04;;;;;;;19.92;2.00;;;;;;;;;;5042051;28;20025;-57
2021/04/03 08:43:31;;;;;;;13.05;2.13;;;;;;;;;;5038445;28;20099;-54
2021/04/03 08:46:02;;;;;;;18.38;2.13;;;;;;;;;;5042421;28;20041;-60
2021/04/03 08:48:30;;;;;;;17.95;3.28;;;;;;;;;;5020359;28;20037;-57
2021/04/03 08:50:58;;;;;;;16.30;2.05;;;;;;;;;;5042689;28;20203;-57
2021/04/03 08:53:36;;;;;;;17.15;1.90;;;;;;;;;;5037887;28;20049;-60
2021/04/03 08:56:02;;;;;;;16.30;1.93;;;;;;;;;;5043621;28;20133;-60
2021/04/03 08:58:28;;;;;;;18.52;2.45;;;;;;;;;;5038435;28;20278;-58
2021/04/03 09:00:54;;;;;;;18.63;2.78;;;;;;;;;;5045241;28;20161;-58
2021/04/03 09:03:20;;;;;;;27.38;3.55;;;;;;;;;;5039160;28;20075;-56
2021/04/03 09:05:47;;;;;;;15.90;2.33;;;;;;;;;;5042428;28;20052;-60
2021/04/03 09:08:24;;;;;;;13.77;1.83;;;;;;;;;;5038607;28;20041;-60
2021/04/03 09:10:54;;;;;;;14.25;2.53;;;;;;;;;;5040618;28;20048;-54
2021/04/03 09:13:20;;;;;;;13.50;2.50;;;;;;;;;;5038285;28;20142;-59
2021/04/03 09:15:47;;;;;;;9.25;2.08;;;;;;;;;;5040917;28;20061;-57
2021/04/03 09:18:14;;;;;;;19.42;2.72;;;;;;;;;;5038156;28;20048;-60
2021/04/03 09:20:45;;;;;;;20.00;2.58;;;;;;;;;;5040836;28;20131;-57
2021/04/03 09:23:11;;;;;;;20.25;2.45;;;;;;;;;;5037965;28;20056;-54
2021/04/03 09:25:38;;;;;;;10.48;1.85;;;;;;;;;;5021161;28;20037;-60
2021/04/03 09:28:05;;;;;;;25.83;2.47;;;;;;;;;;5022061;28;20026;-60
2021/04/03 09:30:32;;;;;;;20.05;2.30;;;;;;;;;;5017785;28;20044;-60
2021/04/03 09:33:12;;;;;;;31.30;2.53;;;;;;;;;;5035554;28;20049;-60
2021/04/03 09:35:39;;;;;;;16.98;1.98;;;;;;;;;;5021813;28;20119;-60
2021/04/03 09:38:05;;;;;;;15.80;2.35;;;;;;;;;;5021807;28;20042;-58
2021/04/03 09:40:34;;;;;;;13.93;2.10;;;;;;;;;;5012015;28;20188;-58
2021/04/03 09:43:03;;;;;;;12.63;2.15;;;;;;;;;;5023715;28;20056;-61
2021/04/03 09:45:29;;;;;;;16.60;3.00;;;;;;;;;;5035704;28;20052;-59
2021/04/03 09:47:56;;;;;;;15.38;2.55;;;;;;;;;;5043365;28;20037;-60
2021/04/03 09:50:22;;;;;;;13.55;2.30;;;;;;;;;;5038226;28;20135;-58
2021/04/03 09:52:49;;;;;;;14.55;2.08;;;;;;;;;;5043664;28;20066;-56
2021/04/03 09:55:16;;;;;;;19.10;2.65;;;;;;;;;;5037520;28;20184;-59
2021/04/03 09:57:42;;;;;;;19.45;2.60;;;;;;;;;;5029921;28;20033;-55
2021/04/03 10:00:09;;;;;;;11.57;1.90;;;;;;;;;;5020852;28;20052;-58
2021/04/03 10:02:37;;;;;;;18.00;2.20;;;;;;;;;;5040972;28;20056;-60
2021/04/03 10:05:03;;;;;;;24.02;2.92;;;;;;;;;;5035788;28;20152;-58
2021/04/03 10:07:31;;;;;;;13.77;2.22;;;;;;;;;;5039164;28;20044;-60
2021/04/03 10:09:57;;;;;;;13.82;2.05;;;;;;;;;;5037329;28;20045;-60
2021/04/03 10:12:23;;;;;;;15.48;1.90;;;;;;;;;;5037007;28;20052;-60
2021/04/03 10:14:49;;;;;;;18.33;2.08;;;;;;;;;;5040369;28;20037;-57
2021/04/03 10:17:16;;;;;;;12.55;2.03;;;;;;;;;;5025219;28;20053;-59
2021/04/03 10:19:42;;;;;;;14.05;2.13;;;;;;;;;;5021142;28;20048;-60
2021/04/03 10:22:14;;;;;;;16.85;2.13;;;;;;;;;;5025060;28;20049;-59
2021/04/03 10:24:40;;;;;;;11.27;1.80;;;;;;;;;;5043387;28;20025;-60
2021/04/03 10:27:07;;;;;;;21.60;2.53;;;;;;;;;;5035258;28;20121;-56
2021/04/03 10:29:32;;;;;;;13.27;2.55;;;;;;;;;;5019350;28;20073;-60
2021/04/03 10:31:59;;;;;;;24.80;3.17;;;;;;;;;;5002298;28;20049;-60
2021/04/03 10:34:26;;;;;;;15.23;2.42;;;;;;;;;;5011708;28;20145;-60
2021/04/03 10:36:52;;;;;;;21.90;2.92;;;;;;;;;;5020696;28;20044;-57
2021/04/03 10:39:18;;;;;;;13.43;2.15;;;;;;;;;;5006301;28;20044;-61
2021/04/03 10:41:44;;;;;;;11.07;2.05;;;;;;;;;;5003740;28;20042;-61
2021/04/03 10:44:11;;;;;;;12.80;2.47;;;;;;;;;;5001251;28;20280;-60
2021/04/03 10:46:37;;;;;;;11.88;2.10;;;;;;;;;;5019871;28;20050;-57
2021/04/03 10:49:02;;;;;;;14.93;2.00;;;;;;;;;;5020779;28;20042;-59
2021/04/03 10:51:30;;;;;;;15.07;2.20;;;;;;;;;;5000770;28;20061;-60
2021/04/03 10:53:56;;;;;;;19.25;2.58;;;;;;;;;;5003639;28;20053;-61
2021/04/03 10:56:22;;;;;;;19.08;2.35;;;;;;;;;;4999392;28;20059;-60
2021/04/03 10:58:48;;;;;;;19.63;2.83;;;;;;;;;;4999965;28;20046;-60
2021/04/03 11:01:14;;;;;;;20.15;2.75;;;;;;;;;;4999923;28;20042;-61
2021/04/03 11:03:40;;;;;;;23.50;2.72;;;;;;;;;;5003102;28;20046;-59
2021/04/03 11:06:06;;;;;;;13.73;2.40;;;;;;;;;;5005930;28;20042;-61
2021/04/03 11:08:33;;;;;;;15.82;2.25;;;;;;;;;;5033912;28;20083;-60
2021/04/03 11:11:00;;;;;;;13.30;2.50;;;;;;;;;;5021213;28;20137;-59
2021/04/03 11:13:26;;;;;;;19.60;2.65;;;;;;;;;;5014828;28;20052;-61
2021/04/03 11:15:52;;;;;;;12.07;2.03;;;;;;;;;;5006976;28;20050;-60
2021/04/03 11:18:18;;;;;;;11.07;2.25;;;;;;;;;;5011138;28;20042;-59
2021/04/03 11:20:43;;;;;;;13.07;2.17;;;;;;;;;;5003795;28;20058;-60
2021/04/03 11:23:11;;;;;;;22.55;2.60;;;;;;;;;;5000171;28;20046;-59
2021/04/03 11:25:38;;;;;;;14.50;2.67;;;;;;;;;;5008318;28;20030;-60
2021/04/03 11:28:04;;;;;;;12.57;1.85;;;;;;;;;;5001495;28;20045;-58
2021/04/03 11:30:30;;;;;;;11.43;1.90;;;;;;;;;;4996931;28;20041;-62
2021/04/03 11:32:56;;;;;;;16.17;1.73;;;;;;;;;;5018696;28;20123;-60
2021/04/03 11:35:24;;;;;;;14.15;2.22;;;;;;;;;;5001916;28;20049;-61
2021/04/03 11:37:50;;;;;;;22.30;2.40;;;;;;;;;;5001293;28;20112;-60
2021/04/03 11:40:17;;;;;;;14.73;2.22;;;;;;;;;;4996935;28;20046;-61
2021/04/03 11:42:47;;;;;;;23.98;2.63;;;;;;;;;;5001068;28;20042;-61
2021/04/03 11:45:14;;;;;;;18.67;3.42;;;;;;;;;;4991147;28;20075;-61
2021/04/03 11:47:40;;;;;;;17.75;1.90;;;;;;;;;;5009697;28;20097;-59
2021/04/03 11:50:07;;;;;;;17.42;2.53;;;;;;;;;;5011729;28;20034;-56
2021/04/03 11:52:37;;;;;;;18.00;2.75;;;;;;;;;;4993475;28;20067;-57
2021/04/03 11:55:05;;;;;;;10.70;2.03;;;;;;;;;;4981904;28;20045;-61
2021/04/03 11:57:31;;;;;;;14.95;2.38;;;;;;;;;;4982186;28;20067;-60
2021/04/03 11:59:59;;;;;;;19.75;2.50;;;;;;;;;;4977272;28;20086;-61
2021/04/03 12:02:25;;;;;;;12.20;2.25;;;;;;;;;;4981077;28;20046;-60
2021/04/03 12:04:51;;;;;;;13.80;2.05;;;;;;;;;;4978016;28;20057;-62
2021/04/03 12:07:17;;;;;;;18.13;2.40;;;;;;;;;;4980481;28;20067;-60
2021/04/03 12:09:43;;;;;;;14.43;2.38;;;;;;;;;;4983471;28;20043;-57
2021/04/03 12:12:10;;;;;;;12.00;2.30;;;;;;;;;;4996764;28;20058;-57
2021/04/03 12:14:38;;;;;;;14.13;3.08;;;;;;;;;;5022935;28;20044;-58
2021/04/03 12:17:05;;;;;;;12.25;1.90;;;;;;;;;;5039110;28;20041;-59
2021/04/03 12:19:31;;;;;;;13.18;2.20;;;;;;;;;;5042975;28;20029;-60
2021/04/03 12:21:57;;;;;;;18.48;2.50;;;;;;;;;;5025674;28;20074;-59
2021/04/03 12:24:23;;;;;;;11.98;2.35;;;;;;;;;;5009459;28;20054;-61
2021/04/03 12:26:49;;;;;;;17.30;2.60;;;;;;;;;;5009242;28;20053;-58
2021/04/03 12:29:15;;;;;;;13.88;3.03;;;;;;;;;;5023418;28;20045;-57
2021/04/03 12:31:41;;;;;;;11.43;2.20;;;;;;;;;;5017672;28;20052;-61
2021/04/03 12:34:07;;;;;;;13.27;2.35;;;;;;;;;;5023298;28;20053;-58
2021/04/03 12:36:34;;;;;;;12.05;2.13;;;;;;;;;;5014763;28;20042;-59
2021/04/03 12:39:00;;;;;;;14.38;2.88;;;;;;;;;;5020071;28;20046;-60
2021/04/03 12:41:26;;;;;;;16.75;2.75;;;;;;;;;;5002062;28;20038;-60
2021/04/03 12:43:54;;;;;;;14.90;2.13;;;;;;;;;;5023476;28;20046;-60
2021/04/03 12:46:20;;;;;;;12.75;2.25;;;;;;;;;;5006905;28;20062;-57
2021/04/03 12:48:46;;;;;;;15.05;2.95;;;;;;;;;;5021248;28;20038;-61
2021/04/03 12:51:13;;;;;;;14.20;2.33;;;;;;;;;;5023016;28;20030;-60
2021/04/03 12:53:39;;;;;;;16.92;3.15;;;;;;;;;;5021389;28;20037;-60
2021/04/03 12:56:06;;;;;;;11.13;2.35;;;;;;;;;;5022160;28;20045;-62
2021/04/03 12:58:32;;;;;;;11.82;2.38;;;;;;;;;;5020003;28;20060;-62
2021/04/03 13:00:58;;;;;;;11.52;2.22;;;;;;;;;;5022778;28;20034;-59
2021/04/03 13:03:25;;;;;;;16.48;2.50;;;;;;;;;;4997281;28;20037;-61
2021/04/03 13:05:51;;;;;;;9.95;1.95;;;;;;;;;;5022334;28;20109;-61
2021/04/03 13:08:18;;;;;;;16.98;2.90;;;;;;;;;;5019374;28;20049;-60
2021/04/03 13:10:44;;;;;;;9.65;2.03;;;;;;;;;;5022819;28;20022;-58
2021/04/03 13:13:11;;;;;;;12.10;2.22;;;;;;;;;;5020332;28;20045;-58
2021/04/03 13:15:38;;;;;;;12.18;2.00;;;;;;;;;;5021629;28;20048;-61
2021/04/03 13:18:04;;;;;;;15.35;2.60;;;;;;;;;;5020982;28;20057;-58
2021/04/03 13:20:30;;;;;;;28.52;2.30;;;;;;;;;;5021255;28;20057;-62
2021/04/03 13:22:57;;;;;;;17.45;2.42;;;;;;;;;;5019820;28;20045;-62
2021/04/03 13:25:24;;;;;;;14.63;2.40;;;;;;;;;;5019187;28;20073;-58
2021/04/03 13:27:50;;;;;;;9.15;1.85;;;;;;;;;;5002345;28;20096;-57
2021/04/03 13:30:16;;;;;;;12.77;2.45;;;;;;;;;;5002716;28;20050;-63
2021/04/03 13:32:42;;;;;;;11.45;2.80;;;;;;;;;;5019312;28;20042;-61
2021/04/03 13:35:09;;;;;;;6.93;1.67;;;;;;;;;;5015723;28;20046;-61
2021/04/03 13:37:35;;;;;;;10.10;2.15;;;;;;;;;;5009605;28;20049;-61
2021/04/03 13:40:01;;;;;;;13.93;2.45;;;;;;;;;;5009014;28;20040;-61
2021/04/03 13:42:28;;;;;;;21.48;2.70;;;;;;;;;;5003045;28;20038;-61
2021/04/03 13:44:55;;;;;;;16.58;2.65;;;;;;;;;;5008421;28;20045;-59
2021/04/03 13:47:21;;;;;;;14.63;2.35;;;;;;;;;;5013380;28;20053;-59
2021/04/03 13:49:47;;;;;;;13.27;2.03;;;;;;;;;;5003454;28;20055;-60
2021/04/03 13:52:14;;;;;;;9.38;2.20;;;;;;;;;;5038248;28;20045;-57
2021/04/03 13:54:40;;;;;;;12.00;1.98;;;;;;;;;;5038633;28;20049;-57
2021/04/03 13:57:06;;;;;;;15.15;2.45;;;;;;;;;;5040528;28;20110;-62
2021/04/03 13:59:33;;;;;;;23.15;2.90;;;;;;;;;;5028791;28;20245;-61
2021/04/03 14:01:59;;;;;;;12.60;3.22;;;;;;;;;;5040301;28;20056;-60
2021/04/03 14:04:25;;;;;;;21.75;3.67;;;;;;;;;;5040623;28;20060;-60
2021/04/03 14:06:51;;;;;;;14.15;2.15;;;;;;;;;;5037896;28;20033;-59
2021/04/03 14:09:17;;;;;;;12.38;2.17;;;;;;;;;;5040690;28;20082;-60
2021/04/03 14:11:43;;;;;;;20.85;3.30;;;;;;;;;;5037659;28;20048;-59
2021/04/03 14:14:09;;;;;;;15.73;2.40;;;;;;;;;;5040605;28;20040;-61
2021/04/03 14:16:36;;;;;;;18.55;3.03;;;;;;;;;;5036639;28;20042;-57
2021/04/03 14:19:02;;;;;;;8.27;2.10;;;;;;;;;;5040447;28;20052;-61
2021/04/03 14:21:28;;;;;;;13.70;2.20;;;;;;;;;;5036545;28;20037;-61
2021/04/03 14:23:55;;;;;;;14.00;2.80;;;;;;;;;;5040410;28;20041;-60
2021/04/03 14:26:21;;;;;;;13.32;2.00;;;;;;;;;;5038818;28;20051;-61
2021/04/03 14:28:47;;;;;;;14.02;2.28;;;;;;;;;;5040835;28;20049;-60
2021/04/03 14:31:13;;;;;;;13.43;2.15;;;;;;;;;;5038016;28;20049;-61
2021/04/03 14:33:41;;;;;;;13.80;2.53;;;;;;;;;;5040864;28;20029;-56